sensor_id;sensor_type;location;lat;lon;timestamp;pressure;altitude;pressure_sealevel;temperature;humidity
12913;BME280;6524;51.368;11.984;2023-03-12T00:04:58;99960.41;;;-0.64;49.52
12913;BME280;6524;51.368;11.984;2023-03-12T00:09:58;99968.56;;;-0.79;49.47
12913;BME280;6524;51.368;11.984;2023-03-12T00:14:59;99971.66;;;-0.99;50.16
12913;BME280;6524;51.368;11.984;2023-03-12T00:20:00;99968.81;;;-1.23;50.85
12913;BME280;6524;51.368;11.984;2023-03-12T00:25:01;99976.88;;;-1.37;51.03
12913;BME280;6524;51.368;11.984;2023-03-12T00:30:03;99972.72;;;-1.07;50.95
12913;BME280;6524;51.368;11.984;2023-03-12T00:35:04;99986.59;;;-1.09;50.28
12913;BME280;6524;51.368;11.984;2023-03-12T00:40:06;99981.50;;;-1.12;50.27
12913;BME280;6524;51.368;11.984;2023-03-12T00:45:08;99975.03;;;-0.96;50.11
12913;BME280;6524;51.368;11.984;2023-03-12T00:50:09;99977.94;;;-0.74;49.80
12913;BME280;6524;51.368;11.984;2023-03-12T00:55:10;99980.72;;;-1.16;50.83
12913;BME280;6524;51.368;11.984;2023-03-12T05:01:11;100005.63;;;-0.74;47.56
12913;BME280;6524;51.368;11.984;2023-03-12T05:06:19;100002.66;;;-0.61;47.67
12913;BME280;6524;51.368;11.984;2023-03-12T05:11:20;100010.38;;;-0.58;47.41
12913;BME280;6524;51.368;11.984;2023-03-12T05:16:20;100005.47;;;-0.68;48.37
12913;BME280;6524;51.368;11.984;2023-03-12T05:21:21;100016.22;;;-0.84;49.08
12913;BME280;6524;51.368;11.984;2023-03-12T05:26:26;100013.19;;;-1.01;48.79
12913;BME280;6524;51.368;11.984;2023-03-12T05:31:27;100006.84;;;-1.25;48.64
12913;BME280;6524;51.368;11.984;2023-03-12T05:36:32;100013.34;;;-1.09;49.55
12913;BME280;6524;51.368;11.984;2023-03-12T05:41:32;100017.91;;;-1.18;49.18
12913;BME280;6524;51.368;11.984;2023-03-12T05:46:32;100020.69;;;-1.28;50.04
12913;BME280;6524;51.368;11.984;2023-03-12T05:51:33;100020.53;;;-1.20;50.17
12913;BME280;6524;51.368;11.984;2023-03-12T05:56:35;100026.44;;;-1.13;50.18
12913;BME280;6524;51.368;11.984;2023-03-12T06:01:36;100023.56;;;-1.01;49.38
12913;BME280;6524;51.368;11.984;2023-03-12T06:06:37;100010.97;;;-1.16;49.55
12913;BME280;6524;51.368;11.984;2023-03-12T06:11:37;100015.94;;;-1.07;49.15
12913;BME280;6524;51.368;11.984;2023-03-12T06:16:38;100011.31;;;-0.60;47.47
12913;BME280;6524;51.368;11.984;2023-03-12T06:21:38;100015.00;;;-0.70;47.62
12913;BME280;6524;51.368;11.984;2023-03-12T06:26:38;100025.88;;;-0.89;47.89
12913;BME280;6524;51.368;11.984;2023-03-12T06:31:39;100016.66;;;0.29;45.35
12913;BME280;6524;51.368;11.984;2023-03-12T06:36:41;100022.09;;;0.52;44.32
12913;BME280;6524;51.368;11.984;2023-03-12T06:41:41;100021.63;;;1.22;42.68
12913;BME280;6524;51.368;11.984;2023-03-12T06:46:42;100021.66;;;1.21;42.90
12913;BME280;6524;51.368;11.984;2023-03-12T06:51:43;100029.34;;;1.50;42.90
12913;BME280;6524;51.368;11.984;2023-03-12T06:56:43;100022.28;;;1.79;42.31
12913;BME280;6524;51.368;11.984;2023-03-12T07:01:45;100021.59;;;2.23;41.65
12913;BME280;6524;51.368;11.984;2023-03-12T07:06:45;100005.44;;;1.89;41.24
12913;BME280;6524;51.368;11.984;2023-03-12T07:11:49;100004.88;;;1.81;41.99
12913;BME280;6524;51.368;11.984;2023-03-12T07:16:49;100013.84;;;3.32;39.87
12913;BME280;6524;51.368;11.984;2023-03-12T07:21:50;99995.16;;;6.00;36.44
12913;BME280;6524;51.368;11.984;2023-03-12T07:26:50;99996.38;;;7.06;34.35
12913;BME280;6524;51.368;11.984;2023-03-12T07:31:50;100005.25;;;7.19;33.21
12913;BME280;6524;51.368;11.984;2023-03-12T07:36:51;100002.06;;;6.50;34.34
12913;BME280;6524;51.368;11.984;2023-03-12T07:41:51;100008.13;;;6.35;34.38
12913;BME280;6524;51.368;11.984;2023-03-12T07:46:52;100004.06;;;8.55;31.06
12913;BME280;6524;51.368;11.984;2023-03-12T07:51:52;99998.50;;;8.59;30.93
12913;BME280;6524;51.368;11.984;2023-03-12T07:56:54;99999.41;;;8.31;31.06
12913;BME280;6524;51.368;11.984;2023-03-12T08:01:54;100005.91;;;7.83;31.32
12913;BME280;6524;51.368;11.984;2023-03-12T08:06:54;100007.44;;;6.65;32.60
12913;BME280;6524;51.368;11.984;2023-03-12T08:11:55;99998.56;;;6.67;33.06
12913;BME280;6524;51.368;11.984;2023-03-12T08:16:55;99989.28;;;8.11;31.61
12913;BME280;6524;51.368;11.984;2023-03-12T08:21:56;99997.88;;;9.50;29.26
12913;BME280;6524;51.368;11.984;2023-03-12T08:26:57;99991.56;;;9.65;29.02
12913;BME280;6524;51.368;11.984;2023-03-12T08:31:57;99986.03;;;8.49;30.86
12913;BME280;6524;51.368;11.984;2023-03-12T08:37:00;99977.81;;;9.34;30.14
12913;BME280;6524;51.368;11.984;2023-03-12T08:42:02;99968.72;;;9.13;30.32
12913;BME280;6524;51.368;11.984;2023-03-12T08:47:03;99972.69;;;8.52;30.93
12913;BME280;6524;51.368;11.984;2023-03-12T08:52:03;99972.38;;;8.01;31.20
12913;BME280;6524;51.368;11.984;2023-03-12T08:57:04;99974.03;;;9.39;29.81
12913;BME280;6524;51.368;11.984;2023-03-12T09:02:04;99960.97;;;9.75;29.38
12913;BME280;6524;51.368;11.984;2023-03-12T09:07:05;99961.81;;;10.51;28.39
12913;BME280;6524;51.368;11.984;2023-03-12T09:12:05;99962.78;;;11.91;26.91
12913;BME280;6524;51.368;11.984;2023-03-12T09:17:06;99959.09;;;13.56;25.91
12913;BME280;6524;51.368;11.984;2023-03-12T09:22:06;99956.44;;;12.71;25.75
12913;BME280;6524;51.368;11.984;2023-03-12T09:27:07;99968.16;;;11.21;27.14
12913;BME280;6524;51.368;11.984;2023-03-12T09:32:07;99956.41;;;10.16;28.22
12913;BME280;6524;51.368;11.984;2023-03-12T09:37:08;99943.44;;;9.23;28.70
12913;BME280;6524;51.368;11.984;2023-03-12T09:47:42;99944.06;;;8.60;29.76
12913;BME280;6524;51.368;11.984;2023-03-12T09:52:54;99920.53;;;8.17;30.87
12913;BME280;6524;51.368;11.984;2023-03-12T09:57:55;99926.44;;;8.75;29.82
12913;BME280;6524;51.368;11.984;2023-03-12T10:03:18;99906.75;;;9.97;28.43
12913;BME280;6524;51.368;11.984;2023-03-12T10:24:40;99900.44;;;7.87;31.19
12913;BME280;6524;51.368;11.984;2023-03-12T10:29:49;99897.47;;;8.48;29.45
12913;BME280;6524;51.368;11.984;2023-03-12T10:39:54;99897.72;;;8.57;30.12
12913;BME280;6524;51.368;11.984;2023-03-12T10:50:16;99881.34;;;9.45;29.56
12913;BME280;6524;51.368;11.984;2023-03-12T10:55:28;99884.41;;;8.19;30.61
12913;BME280;6524;51.368;11.984;2023-03-12T11:00:30;99878.66;;;7.85;31.19
12913;BME280;6524;51.368;11.984;2023-03-12T11:05:35;99872.72;;;6.18;32.37
12913;BME280;6524;51.368;11.984;2023-03-12T11:10:45;99861.38;;;7.24;32.86
12913;BME280;6524;51.368;11.984;2023-03-12T11:15:46;99854.03;;;7.00;31.96
12913;BME280;6524;51.368;11.984;2023-03-12T11:20:48;99843.44;;;5.94;33.47
12913;BME280;6524;51.368;11.984;2023-03-12T11:25:54;99829.22;;;6.76;32.57
12913;BME280;6524;51.368;11.984;2023-03-12T11:30:56;99831.38;;;6.07;33.31
12913;BME280;6524;51.368;11.984;2023-03-12T11:41:26;99810.09;;;5.98;33.59
12913;BME280;6524;51.368;11.984;2023-03-12T11:57:00;99788.84;;;5.22;34.12
12913;BME280;6524;51.368;11.984;2023-03-12T12:13:03;99761.88;;;5.84;34.21
12913;BME280;6524;51.368;11.984;2023-03-12T12:23:57;99742.81;;;4.34;36.41
12913;BME280;6524;51.368;11.984;2023-03-12T12:29:12;99731.09;;;4.76;35.05
12913;BME280;6524;51.368;11.984;2023-03-12T12:39:48;99724.50;;;5.17;35.92
12913;BME280;6524;51.368;11.984;2023-03-12T12:44:52;99728.44;;;5.42;35.06
12913;BME280;6524;51.368;11.984;2023-03-12T12:49:57;99728.28;;;5.29;37.00
12913;BME280;6524;51.368;11.984;2023-03-12T13:05:40;99719.31;;;4.16;42.69
12913;BME280;6524;51.368;11.984;2023-03-12T13:10:47;99714.34;;;4.62;44.39
12913;BME280;6524;51.368;11.984;2023-03-12T13:15:48;99705.69;;;4.27;46.37
12913;BME280;6524;51.368;11.984;2023-03-12T13:25:57;99711.16;;;4.22;46.20
12913;BME280;6524;51.368;11.984;2023-03-12T13:41:36;99692.00;;;3.13;48.01
12913;BME280;6524;51.368;11.984;2023-03-12T13:46:42;99656.28;;;3.69;46.94
12913;BME280;6524;51.368;11.984;2023-03-12T13:51:54;99654.72;;;4.18;45.85
12913;BME280;6524;51.368;11.984;2023-03-12T13:57:08;99670.50;;;4.50;46.12
12913;BME280;6524;51.368;11.984;2023-03-12T14:02:22;99659.19;;;3.99;47.86
12913;BME280;6524;51.368;11.984;2023-03-12T14:07:42;99657.59;;;3.60;49.01
12913;BME280;6524;51.368;11.984;2023-03-12T14:13:09;99649.22;;;4.40;48.10
12913;BME280;6524;51.368;11.984;2023-03-12T14:18:20;99641.81;;;4.33;48.37
12913;BME280;6524;51.368;11.984;2023-03-12T14:23:26;99632.34;;;4.63;47.88
12913;BME280;6524;51.368;11.984;2023-03-12T14:28:28;99621.19;;;5.25;47.04
12913;BME280;6524;51.368;11.984;2023-03-12T14:33:47;99623.50;;;4.15;49.37
12913;BME280;6524;51.368;11.984;2023-03-12T14:38:59;99624.31;;;4.50;49.88
12913;BME280;6524;51.368;11.984;2023-03-12T14:44:24;99611.16;;;4.52;50.29
12913;BME280;6524;51.368;11.984;2023-03-12T14:49:25;99606.84;;;4.18;51.38
12913;BME280;6524;51.368;11.984;2023-03-12T14:54:26;99599.22;;;4.80;50.06
12913;BME280;6524;51.368;11.984;2023-03-12T14:59:29;99598.31;;;3.97;51.99
12913;BME280;6524;51.368;11.984;2023-03-12T15:04:32;99584.34;;;4.96;49.22
12913;BME280;6524;51.368;11.984;2023-03-12T15:09:34;99584.69;;;4.58;50.55
12913;BME280;6524;51.368;11.984;2023-03-12T15:14:39;99578.78;;;5.34;49.19
12913;BME280;6524;51.368;11.984;2023-03-12T15:19:41;99571.72;;;4.72;50.98
12913;BME280;6524;51.368;11.984;2023-03-12T15:24:42;99558.50;;;5.22;50.03
12913;BME280;6524;51.368;11.984;2023-03-12T15:29:43;99559.50;;;4.40;52.23
12913;BME280;6524;51.368;11.984;2023-03-12T15:34:43;99568.41;;;4.20;52.93
12913;BME280;6524;51.368;11.984;2023-03-12T15:39:46;99561.13;;;4.58;52.74
12913;BME280;6524;51.368;11.984;2023-03-12T15:44:49;99565.75;;;3.87;55.48
12913;BME280;6524;51.368;11.984;2023-03-12T15:49:54;99555.19;;;4.23;56.49
12913;BME280;6524;51.368;11.984;2023-03-12T16:05:11;99571.09;;;5.31;55.94
12913;BME280;6524;51.368;11.984;2023-03-12T16:10:18;99579.28;;;4.93;56.50
12913;BME280;6524;51.368;11.984;2023-03-12T16:15:24;99573.06;;;5.27;56.55
12913;BME280;6524;51.368;11.984;2023-03-12T16:20:27;99588.56;;;5.14;56.76
12913;BME280;6524;51.368;11.984;2023-03-12T16:25:27;99580.63;;;5.00;57.21
12913;BME280;6524;51.368;11.984;2023-03-12T16:30:33;99563.72;;;5.22;56.46
12913;BME280;6524;51.368;11.984;2023-03-12T16:35:34;99546.97;;;4.62;58.21
12913;BME280;6524;51.368;11.984;2023-03-12T16:40:37;99549.41;;;4.97;57.04
12913;BME280;6524;51.368;11.984;2023-03-12T16:45:41;99549.19;;;4.86;57.22
12913;BME280;6524;51.368;11.984;2023-03-12T16:50:51;99554.81;;;4.94;56.37
12913;BME280;6524;51.368;11.984;2023-03-12T16:55:57;99560.66;;;5.61;55.70
12913;BME280;6524;51.368;11.984;2023-03-12T17:00:58;99549.56;;;6.00;54.32
12913;BME280;6524;51.368;11.984;2023-03-12T17:05:59;99554.81;;;5.86;54.27
12913;BME280;6524;51.368;11.984;2023-03-12T17:10:59;99573.38;;;5.05;57.06
12913;BME280;6524;51.368;11.984;2023-03-12T17:16:00;99577.97;;;5.63;55.97
12913;BME280;6524;51.368;11.984;2023-03-12T17:21:00;99556.81;;;5.20;56.84
12913;BME280;6524;51.368;11.984;2023-03-12T17:26:00;99561.88;;;5.39;56.83
12913;BME280;6524;51.368;11.984;2023-03-12T17:31:01;99541.63;;;5.27;57.22
12913;BME280;6524;51.368;11.984;2023-03-12T17:36:05;99562.19;;;5.49;56.98
12913;BME280;6524;51.368;11.984;2023-03-12T17:41:06;99569.13;;;5.18;57.83
12913;BME280;6524;51.368;11.984;2023-03-12T17:46:08;99594.06;;;5.72;56.56
12913;BME280;6524;51.368;11.984;2023-03-12T17:51:09;99592.81;;;4.69;59.88
12913;BME280;6524;51.368;11.984;2023-03-12T17:56:10;99580.84;;;5.29;58.18
12913;BME280;6524;51.368;11.984;2023-03-12T18:01:12;99592.72;;;4.87;59.58
12913;BME280;6524;51.368;11.984;2023-03-12T18:06:12;99608.34;;;5.36;58.81
12913;BME280;6524;51.368;11.984;2023-03-12T18:11:13;99597.19;;;5.48;58.94
12913;BME280;6524;51.368;11.984;2023-03-12T18:16:14;99576.59;;;5.42;58.62
12913;BME280;6524;51.368;11.984;2023-03-12T18:21:15;99579.78;;;5.15;60.65
12913;BME280;6524;51.368;11.984;2023-03-12T18:26:15;99573.47;;;5.19;60.46
12913;BME280;6524;51.368;11.984;2023-03-12T18:31:16;99576.94;;;5.04;61.38
12913;BME280;6524;51.368;11.984;2023-03-12T18:36:16;99580.28;;;5.38;60.24
12913;BME280;6524;51.368;11.984;2023-03-12T18:41:17;99581.81;;;5.42;60.45
12913;BME280;6524;51.368;11.984;2023-03-12T18:46:17;99572.19;;;5.42;60.88
12913;BME280;6524;51.368;11.984;2023-03-12T18:51:18;99585.13;;;5.76;60.00
12913;BME280;6524;51.368;11.984;2023-03-12T18:56:19;99603.44;;;5.46;60.23
12913;BME280;6524;51.368;11.984;2023-03-12T19:01:19;99595.47;;;5.47;60.59
12913;BME280;6524;51.368;11.984;2023-03-12T19:06:20;99596.78;;;6.15;58.72
12913;BME280;6524;51.368;11.984;2023-03-12T19:11:20;99595.84;;;6.01;59.23
12913;BME280;6524;51.368;11.984;2023-03-12T19:16:21;99594.09;;;5.56;60.47
12913;BME280;6524;51.368;11.984;2023-03-12T19:21:21;99591.94;;;5.48;60.73
12913;BME280;6524;51.368;11.984;2023-03-12T19:26:22;99587.97;;;6.01;59.23
12913;BME280;6524;51.368;11.984;2023-03-12T19:31:22;99584.44;;;6.17;58.95
12913;BME280;6524;51.368;11.984;2023-03-12T19:36:22;99591.44;;;6.02;59.10
12913;BME280;6524;51.368;11.984;2023-03-12T19:41:23;99606.34;;;6.30;58.75
12913;BME280;6524;51.368;11.984;2023-03-12T19:46:23;99604.50;;;5.87;60.12
12913;BME280;6524;51.368;11.984;2023-03-12T19:51:23;99609.13;;;6.12;59.31
12913;BME280;6524;51.368;11.984;2023-03-12T19:56:24;99593.81;;;5.76;60.94
12913;BME280;6524;51.368;11.984;2023-03-12T20:01:25;99603.03;;;5.68;61.05
12913;BME280;6524;51.368;11.984;2023-03-12T20:06:25;99600.59;;;5.95;60.70
12913;BME280;6524;51.368;11.984;2023-03-12T20:11:25;99604.63;;;6.29;58.79
12913;BME280;6524;51.368;11.984;2023-03-12T20:16:26;99600.84;;;5.90;60.03
12913;BME280;6524;51.368;11.984;2023-03-12T20:21:26;99597.31;;;6.05;60.59
12913;BME280;6524;51.368;11.984;2023-03-12T20:26:27;99604.59;;;5.86;61.29
12913;BME280;6524;51.368;11.984;2023-03-12T20:31:27;99603.91;;;6.41;58.90
12913;BME280;6524;51.368;11.984;2023-03-12T20:36:27;99605.78;;;5.50;61.73
12913;BME280;6524;51.368;11.984;2023-03-12T20:41:28;99605.22;;;6.20;60.30
12913;BME280;6524;51.368;11.984;2023-03-12T20:46:28;99603.66;;;5.87;60.91
12913;BME280;6524;51.368;11.984;2023-03-12T20:51:29;99612.94;;;6.07;61.13
12913;BME280;6524;51.368;11.984;2023-03-12T20:56:29;99599.41;;;6.15;60.97
12913;BME280;6524;51.368;11.984;2023-03-12T21:01:30;99593.47;;;5.97;61.68
12913;BME280;6524;51.368;11.984;2023-03-12T21:06:30;99582.81;;;6.00;61.62
12913;BME280;6524;51.368;11.984;2023-03-12T21:11:31;99582.19;;;6.68;59.65
12913;BME280;6524;51.368;11.984;2023-03-12T21:16:31;99569.72;;;7.13;58.38
12913;BME280;6524;51.368;11.984;2023-03-12T21:21:32;99563.38;;;7.02;58.09
12913;BME280;6524;51.368;11.984;2023-03-12T21:26:35;99565.97;;;6.75;59.02
12913;BME280;6524;51.368;11.984;2023-03-12T21:31:35;99568.03;;;7.12;57.60
12913;BME280;6524;51.368;11.984;2023-03-12T21:36:36;99560.34;;;7.09;57.85
12913;BME280;6524;51.368;11.984;2023-03-12T21:41:36;99563.53;;;7.14;57.71
12913;BME280;6524;51.368;11.984;2023-03-12T21:46:36;99568.03;;;7.91;55.68
12913;BME280;6524;51.368;11.984;2023-03-12T21:51:37;99571.75;;;7.62;56.26
12913;BME280;6524;51.368;11.984;2023-03-12T21:56:37;99560.09;;;7.26;57.14
12913;BME280;6524;51.368;11.984;2023-03-12T22:01:38;99562.91;;;6.54;59.16
12913;BME280;6524;51.368;11.984;2023-03-12T22:06:38;99568.69;;;7.15;57.92
12913;BME280;6524;51.368;11.984;2023-03-12T22:11:38;99563.31;;;6.90;58.61
12913;BME280;6524;51.368;11.984;2023-03-12T22:16:39;99565.25;;;7.55;57.01
12913;BME280;6524;51.368;11.984;2023-03-12T22:21:39;99568.66;;;6.88;58.20
12913;BME280;6524;51.368;11.984;2023-03-12T22:26:42;99556.91;;;7.48;57.46
12913;BME280;6524;51.368;11.984;2023-03-12T22:31:42;99550.28;;;7.42;57.19
12913;BME280;6524;51.368;11.984;2023-03-12T22:36:43;99555.56;;;7.55;56.57
12913;BME280;6524;51.368;11.984;2023-03-12T22:41:47;99546.06;;;7.67;56.02
12913;BME280;6524;51.368;11.984;2023-03-12T22:46:50;99525.22;;;7.24;57.18
12913;BME280;6524;51.368;11.984;2023-03-12T22:51:51;99518.31;;;7.88;55.51
12913;BME280;6524;51.368;11.984;2023-03-12T22:56:51;99525.06;;;7.92;55.13
12913;BME280;6524;51.368;11.984;2023-03-12T23:01:51;99527.03;;;7.76;55.38
12913;BME280;6524;51.368;11.984;2023-03-12T23:06:52;99513.78;;;7.90;55.59
12913;BME280;6524;51.368;11.984;2023-03-12T23:11:52;99519.88;;;8.04;54.44
12913;BME280;6524;51.368;11.984;2023-03-12T23:16:52;99521.97;;;8.24;54.47
12913;BME280;6524;51.368;11.984;2023-03-12T23:21:53;99531.97;;;7.81;55.64
12913;BME280;6524;51.368;11.984;2023-03-12T23:26:53;99525.13;;;8.04;55.45
12913;BME280;6524;51.368;11.984;2023-03-12T23:31:54;99523.06;;;7.83;56.25
12913;BME280;6524;51.368;11.984;2023-03-12T23:36:54;99515.03;;;8.23;55.36
12913;BME280;6524;51.368;11.984;2023-03-12T23:41:55;99509.66;;;8.74;53.80
12913;BME280;6524;51.368;11.984;2023-03-12T23:46:56;99511.03;;;8.67;53.65
12913;BME280;6524;51.368;11.984;2023-03-12T23:51:56;99511.97;;;8.29;54.28
12913;BME280;6524;51.368;11.984;2023-03-12T23:56:57;99511.97;;;8.29;55.21
